Погода Полупустошьна неделю

Тверская область, Россия

25 - 31 мая
  • 25мая
    Сегодня
    +10°
    +25°
    Ясно и безоблачно
    ВремяПогодаТемператураВлажностьДавлениеВетер, м/сВероятность осадков
    00:00Ясно и безоблачно+10°C67 %758 мм2.1 м/с2 %
    03:00Ясно и безоблачно+8°C63 %758 мм2.6 м/с2 %
    06:00Ясно и безоблачно+10°C64 %758 мм2.4 м/с2 %
    09:00Ясно и безоблачно+18°C47 %758 мм2.9 м/с2 %
    12:00Практически безоблачно+22°C33 %757 мм3.3 м/с2 %
    15:00Ясно и безоблачно+24°C33 %756 мм3.5 м/с2 %
    18:00Ясно и безоблачно+24°C35 %755 мм3.5 м/с2 %
    21:00Ясно и безоблачно+17°C60 %754 мм2.4 м/с2 %
  • 26мая
    Воскресенье
    +7°
    +23°
    Облачно с прояснениями, небольшой дождь
    ВремяПогодаТемператураВлажностьДавлениеВетер, м/сВероятность осадков
    00:00Ясно и безоблачно+12°C69 %754 мм2.3 м/с2 %
    03:00Ясно и безоблачно+10°C75 %754 мм2.3 м/с2 %
    06:00Ясно и безоблачно+13°C74 %754 мм2.3 м/с1 %
    09:00Облачно с прояснениями+20°C66 %755 мм0.8 м/с14 %
    12:00Пасмурно, ливень+21°C70 %755 мм2.2 м/с60 %
    15:00Облачно с прояснениями, небольшой дождь+22°C63 %755 мм3.2 м/с57 %
    18:00Облачно с прояснениями+23°C44 %755 мм2.4 м/с30 %
    21:00Ясно и безоблачно+17°C49 %756 мм2.9 м/с8 %
  • 27мая
    Понедельник
    +8°
    +23°
    Ясно и безоблачно
    ВремяПогодаТемператураВлажностьДавлениеВетер, м/сВероятность осадков
    00:00Ясно и безоблачно+11°C49 %757 мм3.0 м/с1 %
    03:00Ясно и безоблачно+8°C59 %757 мм2.3 м/с2 %
    06:00Ясно и безоблачно+10°C66 %758 мм2.5 м/с2 %
    09:00Ясно и безоблачно+18°C50 %758 мм2.3 м/с2 %
    12:00Ясно и безоблачно+21°C39 %758 мм2.7 м/с2 %
    15:00Ясно и безоблачно+23°C34 %757 мм2.2 м/с2 %
    18:00Ясно и безоблачно+23°C36 %756 мм1.6 м/с2 %
    21:00Ясно и безоблачно+17°C59 %755 мм2.1 м/с2 %
  • 28мая
    Вторник
    +11°
    +26°
    Ясно и безоблачно
    ВремяПогодаТемператураВлажностьДавлениеВетер, м/сВероятность осадков
    00:00Ясно и безоблачно+12°C65 %755 мм2.1 м/с2 %
    03:00Ясно и безоблачно+9°C76 %755 мм2.5 м/с2 %
    06:00Ясно и безоблачно+12°C74 %755 мм1.7 м/с2 %
    09:00Ясно и безоблачно+21°C54 %755 мм0.9 м/с2 %
    12:00Ясно и безоблачно+24°C37 %754 мм0.6 м/с13 %
    15:00Ясно и безоблачно+25°C35 %753 мм0.8 м/с13 %
    18:00Ясно и безоблачно+25°C37 %752 мм1.1 м/с11 %
    21:00Ясно и безоблачно+19°C61 %751 мм2.3 м/с6 %
  • 29мая
    Среда
    +10°
    +26°
    Ясно и безоблачно
    ВремяПогодаТемператураВлажностьДавлениеВетер, м/сВероятность осадков
    00:00Ясно и безоблачно+14°C70 %751 мм3.0 м/с2 %
    03:00Ясно и безоблачно+12°C78 %751 мм2.2 м/с4 %
    06:00Ясно и безоблачно+14°C79 %750 мм1.5 м/с8 %
    09:00Ясно и безоблачно+23°C58 %750 мм0.6 м/с7 %
    12:00Ясно и безоблачно+25°C40 %750 мм1.1 м/с25 %
    15:00Ясно и безоблачно+25°C38 %749 мм1.3 м/с25 %
    18:00Практически безоблачно+26°C41 %748 мм1.1 м/с26 %
    21:00Практически безоблачно+21°C57 %748 мм2.8 м/с12 %
Мы используем cookies
Соглашаюсь